Time;durP1;ratioP1;P1;durP2;ratioP2;P2;SDS_P1;SDS_P2;PMS_P1;PMS_P2;Temp;Humidity;BMP_temperature;BMP_pressure;BME280_temperature;BME280_humidity;BME280_pressure;Samples;Min_cycle;Max_cycle;Signal;HPM_P1;HPM_P2
2022/10/28 00:02:24;;;;;;;4.18;3.60;;;12.60;1.00;;;;;;5007466;28;20634;-76
2022/10/28 00:04:50;;;;;;;6.22;4.07;;;12.60;1.00;;;;;;4989586;28;20206;-78
2022/10/28 00:07:16;;;;;;;7.85;4.03;;;12.50;1.00;;;;;;5006880;28;20190;-79
2022/10/28 00:09:41;;;;;;;5.13;3.70;;;12.50;1.00;;;;;;5008124;28;20292;-78
2022/10/28 00:12:07;;;;;;;6.85;3.80;;;12.40;1.00;;;;;;5008140;28;21285;-78
2022/10/28 00:14:32;;;;;;;4.95;4.07;;;12.40;1.00;;;;;;5008671;28;20680;-78
2022/10/28 00:16:58;;;;;;;5.32;4.10;;;12.30;1.00;;;;;;4989737;28;20192;-79
2022/10/28 00:19:24;;;;;;;5.43;3.95;;;12.20;1.00;;;;;;4989991;28;20594;-78
2022/10/28 00:21:49;;;;;;;6.03;4.25;;;12.30;1.00;;;;;;5007135;28;20182;-78
2022/10/28 00:24:15;;;;;;;6.53;3.70;;;12.70;1.00;;;;;;4990119;28;20234;-77
2022/10/28 00:26:42;;;;;;;5.07;3.90;;;12.30;1.00;;;;;;5006192;28;20601;-77
2022/10/28 00:29:17;;;;;;;6.47;4.45;;;12.30;1.00;;;;;;5006946;28;20184;-77
2022/10/28 00:31:43;;;;;;;5.53;3.88;;;12.30;1.00;;;;;;5006571;28;20555;-78
2022/10/28 00:34:15;;;;;;;4.47;3.47;;;12.20;1.00;;;;;;5007598;28;20290;-76
2022/10/28 00:36:43;;;;;;;7.95;3.80;;;12.20;1.00;;;;;;5006852;28;20200;-78
2022/10/28 00:39:15;;;;;;;4.78;3.80;;;12.40;1.00;;;;;;5006959;28;20215;-77
2022/10/28 00:41:46;;;;;;;4.88;3.65;;;12.30;1.00;;;;;;4987789;28;20346;-77
2022/10/28 00:44:49;;;;;;;5.03;3.47;;;12.20;1.00;;;;;;4989543;28;20648;-76
2022/10/28 00:47:39;;;;;;;5.78;3.90;;;12.10;1.00;;;;;;4988880;28;20192;-78
2022/10/28 00:50:18;;;;;;;6.32;4.10;;;12.10;4.90;;;;;;4989384;28;20188;-78
2022/10/28 00:52:49;;;;;;;5.18;3.75;;;12.10;26.40;;;;;;5006665;28;20262;-78
2022/10/28 00:55:16;;;;;;;5.82;3.92;;;12.00;75.20;;;;;;5007004;28;20299;-79
2022/10/28 00:57:43;;;;;;;4.40;3.83;;;12.00;99.90;;;;;;5007289;28;20222;-77
2022/10/28 01:00:09;;;;;;;4.75;3.58;;;12.00;99.90;;;;;;5007050;28;20234;-77
2022/10/28 01:02:48;;;;;;;5.80;3.60;;;12.00;99.90;;;;;;4988713;28;20282;-78
2022/10/28 01:05:17;;;;;;;6.22;3.90;;;12.10;99.90;;;;;;5006364;28;20211;-79
2022/10/28 01:07:44;;;;;;;4.43;3.67;;;12.00;99.90;;;;;;4988426;28;20187;-77
2022/10/28 01:10:11;;;;;;;6.80;4.10;;;12.10;1.00;;;;;;5006301;28;20199;-78
2022/10/28 01:12:55;;;;;;;4.43;3.42;;;12.60;1.00;;;;;;4988497;28;20222;-78
2022/10/28 01:15:37;;;;;;;7.43;3.78;;;12.10;1.00;;;;;;4989010;28;20684;-78
2022/10/28 01:18:06;;;;;;;5.95;3.88;;;12.20;1.00;;;;;;4997969;28;20187;-79
2022/10/28 01:20:34;;;;;;;8.95;4.15;;;12.20;1.00;;;;;;5006236;28;20264;-77
2022/10/28 01:23:00;;;;;;;7.47;3.85;;;12.30;99.90;;;;;;5005842;28;20200;-78
2022/10/28 01:25:25;;;;;;;7.25;4.22;;;12.40;99.90;;;;;;5006089;28;20582;-76
2022/10/28 01:28:22;;;;;;;9.88;3.92;;;12.50;99.90;;;;;;4988767;28;20723;-77
2022/10/28 01:31:15;;;;;;;7.10;3.92;;;12.60;22.10;;;;;;4987639;28;20195;-76
2022/10/28 01:33:45;;;;;;;5.57;3.97;;;12.60;1.00;;;;;;4988402;28;20179;-78
2022/10/28 01:36:17;;;;;;;6.25;3.42;;;12.70;1.00;;;;;;5006412;28;21087;-78
2022/10/28 01:39:03;;;;;;;5.80;3.83;;;12.70;1.00;;;;;;5006205;28;20723;-77
2022/10/28 01:41:36;;;;;;;8.57;3.55;;;12.70;1.00;;;;;;5005355;28;20866;-76
2022/10/28 01:44:22;;;;;;;13.32;4.60;;;12.70;1.00;;;;;;5006002;28;20206;-78
2022/10/28 01:47:09;;;;;;;6.68;4.07;;;12.80;1.00;;;;;;4971204;28;20670;-78
2022/10/28 01:49:45;;;;;;;9.68;4.03;;;12.80;1.00;;;;;;5005378;28;20284;-78
2022/10/28 01:52:15;;;;;;;7.60;3.67;;;12.80;1.00;;;;;;5004757;28;20707;-79
2022/10/28 01:54:45;;;;;;;5.15;3.75;;;13.00;1.00;;;;;;5006308;28;20934;-77
2022/10/28 01:57:13;;;;;;;5.90;3.88;;;13.00;1.00;;;;;;5005709;28;20214;-79
2022/10/28 01:59:39;;;;;;;8.18;4.15;;;13.10;1.00;;;;;;5005599;28;20705;-76
2022/10/28 02:02:05;;;;;;;10.45;3.90;;;13.30;1.00;;;;;;5005807;28;20179;-79
2022/10/28 02:04:31;;;;;;;7.57;3.78;;;13.50;99.90;;;;;;5005680;28;20224;-78
2022/10/28 02:06:59;;;;;;;10.30;3.58;;;13.60;99.90;;;;;;5005113;28;20668;-78
2022/10/28 02:09:41;;;;;;;6.95;3.47;;;13.70;99.90;;;;;;5005596;28;20184;-79
2022/10/28 02:12:16;;;;;;;5.78;3.10;;;13.60;99.90;;;;;;5004633;28;20255;-77
2022/10/28 02:14:57;;;;;;;7.25;3.42;;;13.40;99.90;;;;;;5005232;28;20215;-77
2022/10/28 02:17:38;;;;;;;5.50;3.25;;;13.20;99.90;;;;;;5005196;28;20530;-77
2022/10/28 02:20:11;;;;;;;7.53;3.78;;;13.10;99.90;;;;;;5005788;28;20204;-77
2022/10/28 02:23:12;;;;;;;6.80;3.70;;;13.20;99.90;;;;;;5002741;28;20183;-77
2022/10/28 02:25:51;;;;;;;8.73;3.75;;;13.30;99.90;;;;;;4960081;28;20215;-76
2022/10/28 02:28:26;;;;;;;6.95;3.50;;;13.50;99.90;;;;;;4986826;28;20206;-77
2022/10/28 02:31:03;;;;;;;6.82;3.60;;;13.50;99.90;;;;;;4987362;28;20726;-77
2022/10/28 02:33:33;;;;;;;5.18;3.58;;;13.30;99.90;;;;;;4995672;28;20242;-78
2022/10/28 02:36:09;;;;;;;6.05;3.47;;;13.20;99.90;;;;;;5005074;28;20199;-77
2022/10/28 02:38:44;;;;;;;4.82;3.22;;;13.00;99.90;;;;;;5004015;28;20191;-79
2022/10/28 02:41:22;;;;;;;4.25;3.08;;;12.90;99.90;;;;;;5004359;28;20573;-75
2022/10/28 02:43:54;;;;;;;6.90;3.58;;;12.80;99.90;;;;;;5005479;28;20191;-76
2022/10/28 02:46:22;;;;;;;5.60;3.50;;;12.80;99.90;;;;;;5003938;28;20339;-79
2022/10/28 02:48:52;;;;;;;5.22;3.30;;;12.80;99.90;;;;;;5004742;28;20263;-79
2022/10/28 02:51:24;;;;;;;7.10;3.70;;;13.00;99.90;;;;;;5004348;28;20230;-76
2022/10/28 02:54:00;;;;;;;5.85;3.40;;;13.00;99.90;;;;;;5005262;28;20675;-78
2022/10/28 02:56:33;;;;;;;6.43;3.55;;;13.00;99.90;;;;;;5003084;28;20210;-76
2022/10/28 02:58:59;;;;;;;8.73;3.72;;;12.90;99.90;;;;;;5004966;28;20180;-78
2022/10/28 03:01:25;;;;;;;7.25;3.63;;;12.90;99.90;;;;;;5004834;28;20188;-77
2022/10/28 03:03:50;;;;;;;4.57;3.40;;;12.90;99.90;;;;;;5004974;28;20554;-78
2022/10/28 03:06:16;;;;;;;5.43;3.30;;;13.00;99.90;;;;;;4985107;28;20200;-76
2022/10/28 03:08:42;;;;;;;5.95;4.00;;;12.90;99.90;;;;;;5000227;28;21054;-78
2022/10/28 03:11:07;;;;;;;4.18;3.38;;;12.80;99.90;;;;;;5002040;28;20188;-77
2022/10/28 03:13:33;;;;;;;5.22;3.63;;;12.90;99.90;;;;;;5004363;28;20290;-76
2022/10/28 03:15:58;;;;;;;10.63;4.20;;;12.90;99.90;;;;;;5004875;28;20667;-79
2022/10/28 03:18:24;;;;;;;9.30;3.97;;;13.00;99.90;;;;;;5003972;28;20191;-77
2022/10/28 03:20:49;;;;;;;7.70;3.83;;;13.00;1.00;;;;;;5004873;28;20203;-77
2022/10/28 03:23:15;;;;;;;8.10;3.92;;;12.90;1.00;;;;;;5004434;28;20188;-77
2022/10/28 03:25:41;;;;;;;6.28;3.38;;;12.90;1.00;;;;;;5004743;28;20199;-78
2022/10/28 03:28:06;;;;;;;6.03;3.50;;;12.90;1.00;;;;;;5004559;28;20183;-76
2022/10/28 03:30:32;;;;;;;4.15;3.25;;;12.90;1.00;;;;;;5003888;28;20193;-77
2022/10/28 03:32:57;;;;;;;7.30;3.83;;;12.80;99.90;;;;;;5003332;28;20301;-76
2022/10/28 03:35:23;;;;;;;6.00;3.22;;;12.80;1.00;;;;;;5004269;28;20290;-78
2022/10/28 03:37:49;;;;;;;9.65;4.32;;;12.70;1.00;;;;;;4986441;28;20275;-77
2022/10/28 03:40:14;;;;;;;8.65;4.40;;;12.80;1.00;;;;;;5004688;28;20254;-77
2022/10/28 03:42:40;;;;;;;8.02;4.25;;;12.90;1.00;;;;;;5004288;28;20192;-76
2022/10/28 03:45:06;;;;;;;8.45;4.00;;;13.20;1.00;;;;;;5004546;28;20255;-77
2022/10/28 03:47:33;;;;;;;6.95;4.00;;;13.30;1.00;;;;;;5004174;28;20176;-79
2022/10/28 03:49:59;;;;;;;6.72;3.53;;;13.30;99.90;;;;;;5003844;28;20846;-76
2022/10/28 03:52:25;;;;;;;9.35;3.70;;;13.40;99.90;;;;;;5003784;28;20215;-79
2022/10/28 03:54:50;;;;;;;9.40;3.90;;;13.40;99.90;;;;;;5004524;28;20203;-77
2022/10/28 03:57:16;;;;;;;5.45;3.67;;;13.30;99.90;;;;;;5004280;28;21099;-79
2022/10/28 03:59:41;;;;;;;6.72;3.38;;;13.40;99.90;;;;;;5004353;28;20203;-77
2022/10/28 04:02:07;;;;;;;4.78;3.38;;;13.20;99.90;;;;;;5007566;28;20241;-79
2022/10/28 04:04:33;;;;;;;7.53;3.65;;;13.20;99.90;;;;;;5007830;28;20175;-77
2022/10/28 04:06:58;;;;;;;7.05;3.80;;;12.90;99.90;;;;;;5007999;28;20180;-77
2022/10/28 04:09:24;;;;;;;6.30;3.70;;;12.90;1.00;;;;;;5008118;28;20180;-77
2022/10/28 04:11:49;;;;;;;7.60;3.58;;;12.90;1.00;;;;;;4990084;28;20266;-77
2022/10/28 04:14:15;;;;;;;6.88;4.10;;;12.90;1.00;;;;;;5008191;28;20188;-78
2022/10/28 04:16:41;;;;;;;7.18;3.80;;;12.70;1.00;;;;;;5007429;28;20231;-78
2022/10/28 04:19:06;;;;;;;5.80;3.60;;;12.90;1.00;;;;;;5007573;28;20647;-79
2022/10/28 04:21:32;;;;;;;9.90;3.90;;;12.70;1.00;;;;;;5007453;28;20241;-78
2022/10/28 04:23:58;;;;;;;11.27;4.18;;;12.70;1.00;;;;;;4989459;28;20674;-77
2022/10/28 04:26:24;;;;;;;6.60;3.80;;;12.60;1.00;;;;;;5006833;28;20585;-77
2022/10/28 04:28:49;;;;;;;7.10;3.42;;;12.80;1.00;;;;;;5007853;28;20250;-78
2022/10/28 04:31:15;;;;;;;5.50;3.58;;;12.70;1.00;;;;;;5007630;28;20210;-78
2022/10/28 04:33:40;;;;;;;5.32;3.75;;;12.70;1.00;;;;;;5006322;28;20203;-78
2022/10/28 04:36:06;;;;;;;5.60;3.70;;;12.80;1.00;;;;;;5007804;28;20254;-77
2022/10/28 04:38:32;;;;;;;6.13;4.05;;;12.80;1.00;;;;;;5006550;28;20191;-79
2022/10/28 04:40:57;;;;;;;7.20;3.88;;;13.00;1.00;;;;;;4990034;28;20195;-78
2022/10/28 04:43:23;;;;;;;8.07;4.00;;;13.20;1.00;;;;;;5006437;28;20184;-76
2022/10/28 04:45:48;;;;;;;5.95;3.90;;;13.30;99.90;;;;;;5007521;28;20203;-78
2022/10/28 04:48:14;;;;;;;7.70;4.20;;;13.40;99.90;;;;;;4989092;28;20191;-78
2022/10/28 04:50:40;;;;;;;9.18;3.60;;;13.40;99.90;;;;;;4989501;28;20188;-78
2022/10/28 04:53:06;;;;;;;7.95;4.28;;;13.40;99.90;;;;;;5005106;28;20204;-78
2022/10/28 04:55:31;;;;;;;6.60;3.60;;;13.40;99.90;;;;;;5007411;28;20204;-77
2022/10/28 04:57:59;;;;;;;6.10;3.90;;;13.40;99.90;;;;;;5005993;28;20179;-79
2022/10/28 05:00:26;;;;;;;8.38;3.90;;;13.40;99.90;;;;;;5007032;28;20211;-77
2022/10/28 05:02:55;;;;;;;6.28;3.80;;;13.50;99.90;;;;;;5006732;28;20188;-77
2022/10/28 05:05:21;;;;;;;5.80;3.75;;;13.30;99.90;;;;;;5007225;28;20296;-78
2022/10/28 05:07:46;;;;;;;7.90;4.03;;;13.30;99.90;;;;;;5006639;28;20605;-79
2022/10/28 05:10:16;;;;;;;7.10;3.92;;;13.30;99.90;;;;;;4989138;28;20195;-77
2022/10/28 05:12:45;;;;;;;7.43;4.05;;;13.20;99.90;;;;;;5006112;28;20207;-77
2022/10/28 05:15:13;;;;;;;8.80;4.82;;;13.10;99.90;;;;;;5006439;28;20212;-77
2022/10/28 05:17:43;;;;;;;7.80;4.25;;;13.10;99.90;;;;;;5005998;28;20191;-76
2022/10/28 05:20:10;;;;;;;7.82;4.20;;;13.10;99.90;;;;;;4988743;28;20632;-76
2022/10/28 05:22:36;;;;;;;6.43;3.63;;;13.10;99.90;;;;;;5005942;28;20185;-76
2022/10/28 05:25:03;;;;;;;5.70;3.70;;;13.10;99.90;;;;;;5007784;28;20548;-77
2022/10/28 05:27:28;;;;;;;8.13;3.85;;;13.10;99.90;;;;;;5005722;28;20218;-75
2022/10/28 05:29:54;;;;;;;7.38;4.07;;;13.00;99.90;;;;;;5004669;28;20624;-78
2022/10/28 05:32:19;;;;;;;8.02;4.10;;;13.10;99.90;;;;;;5006945;28;20203;-79
2022/10/28 05:34:45;;;;;;;11.15;3.90;;;13.10;99.90;;;;;;4989869;28;20207;-81
2022/10/28 05:37:11;;;;;;;7.78;4.20;;;13.10;99.90;;;;;;5006321;28;20230;-76
2022/10/28 05:39:36;;;;;;;4.55;3.75;;;13.10;99.90;;;;;;5005940;28;20195;-77
2022/10/28 05:42:02;;;;;;;7.75;3.90;;;13.70;99.90;;;;;;5006046;28;20183;-76
2022/10/28 05:44:27;;;;;;;6.38;3.70;;;13.10;99.90;;;;;;4985524;28;20184;-79
2022/10/28 05:46:54;;;;;;;9.20;4.00;;;13.10;99.90;;;;;;5004844;28;20187;-75
2022/10/28 05:49:19;;;;;;;5.82;3.70;;;13.20;99.90;;;;;;5005262;28;20278;-75
2022/10/28 05:51:45;;;;;;;10.73;4.18;;;13.30;99.90;;;;;;5005852;28;20282;-79
2022/10/28 05:54:11;;;;;;;7.22;4.00;;;13.30;99.90;;;;;;5005798;28;20187;-77
2022/10/28 05:56:37;;;;;;;5.57;3.67;;;13.30;99.90;;;;;;5004853;28;20212;-77
2022/10/28 05:59:03;;;;;;;6.90;3.50;;;13.30;99.90;;;;;;5004153;28;20191;-75
2022/10/28 06:01:28;;;;;;;8.05;3.83;;;13.40;99.90;;;;;;5005366;28;20191;-77
2022/10/28 06:03:54;;;;;;;6.50;3.88;;;13.30;99.90;;;;;;5005476;28;20219;-76
2022/10/28 06:06:19;;;;;;;6.60;3.78;;;13.40;99.90;;;;;;4987722;28;20200;-77
2022/10/28 06:08:45;;;;;;;5.40;3.92;;;13.30;99.90;;;;;;5005434;28;20211;-77
2022/10/28 06:11:11;;;;;;;7.00;4.30;;;13.30;99.90;;;;;;5005210;28;20555;-79
2022/10/28 06:13:36;;;;;;;5.90;4.20;;;13.20;99.90;;;;;;4987565;28;20187;-77
2022/10/28 06:16:02;;;;;;;9.45;4.85;;;13.10;99.90;;;;;;4987664;28;20548;-76
2022/10/28 06:18:27;;;;;;;9.18;4.55;;;13.10;99.90;;;;;;5004640;28;20215;-77
2022/10/28 06:20:57;;;;;;;7.55;4.78;;;13.10;99.90;;;;;;4987110;28;20207;-76
2022/10/28 06:23:24;;;;;;;7.47;4.40;;;13.00;99.90;;;;;;5005284;28;20651;-78
2022/10/28 06:25:50;;;;;;;5.38;3.90;;;13.00;99.90;;;;;;5004129;28;20220;-78
2022/10/28 06:28:16;;;;;;;6.85;4.05;;;12.90;99.90;;;;;;5003887;28;20233;-78
2022/10/28 06:30:42;;;;;;;5.00;4.15;;;12.90;99.90;;;;;;5003145;28;20191;-76
2022/10/28 06:33:08;;;;;;;8.27;4.43;;;12.90;99.90;;;;;;5001367;28;20601;-76
2022/10/28 06:35:33;;;;;;;7.07;4.25;;;12.90;99.90;;;;;;4987607;28;20207;-77
2022/10/28 06:37:59;;;;;;;8.88;4.32;;;12.90;1.00;;;;;;4987953;28;20186;-75
2022/10/28 06:40:26;;;;;;;7.60;4.30;;;12.90;1.00;;;;;;5005503;28;20626;-83
2022/10/28 06:43:03;;;;;;;6.07;4.10;;;12.90;1.00;;;;;;4987954;28;20198;-81
2022/10/28 06:45:31;;;;;;;9.27;4.18;;;13.00;1.00;;;;;;4995101;28;20616;-82
2022/10/28 06:47:58;;;;;;;8.43;4.53;;;13.10;1.00;;;;;;4987228;28;21244;-83
2022/10/28 06:50:23;;;;;;;7.47;4.18;;;13.40;99.90;;;;;;4988587;28;20697;-83
2022/10/28 06:52:49;;;;;;;7.90;4.13;;;13.20;99.90;;;;;;4987317;28;20207;-82
2022/10/28 06:55:15;;;;;;;6.85;4.05;;;13.30;99.90;;;;;;4988069;28;20214;-82
2022/10/28 06:57:40;;;;;;;7.53;4.15;;;13.20;99.90;;;;;;5005048;28;20180;-83
2022/10/28 07:00:07;;;;;;;7.22;4.47;;;13.20;99.90;;;;;;5004187;28;20222;-81
2022/10/28 07:02:32;;;;;;;7.45;4.40;;;13.10;99.90;;;;;;5003388;28;20234;-83
2022/10/28 07:04:58;;;;;;;7.78;4.10;;;13.20;99.90;;;;;;5003954;28;21232;-83
2022/10/28 07:07:23;;;;;;;6.45;3.53;;;13.20;99.90;;;;;;4987037;28;20263;-84
2022/10/28 07:09:49;;;;;;;6.47;3.88;;;13.30;99.90;;;;;;5004738;28;20556;-82
2022/10/28 07:12:15;;;;;;;5.80;3.83;;;13.40;99.90;;;;;;4987148;28;20612;-83
2022/10/28 07:14:40;;;;;;;8.65;4.10;;;13.30;99.90;;;;;;5006611;28;20263;-84
2022/10/28 07:17:06;;;;;;;7.07;3.90;;;13.50;99.90;;;;;;4988026;28;20179;-84
2022/10/28 07:19:31;;;;;;;9.93;3.88;;;13.60;99.90;;;;;;4988085;28;20715;-84
2022/10/28 07:22:03;;;;;;;8.23;3.88;;;13.70;99.90;;;;;;4992027;28;20184;-84
2022/10/28 07:24:29;;;;;;;5.65;4.35;;;13.70;99.90;;;;;;4989583;28;20605;-83
2022/10/28 07:26:54;;;;;;;6.78;3.95;;;13.80;99.90;;;;;;4985131;28;20179;-83
2022/10/28 07:29:20;;;;;;;7.40;3.88;;;13.90;99.90;;;;;;4983754;28;20195;-83
2022/10/28 07:31:45;;;;;;;7.53;4.03;;;14.10;99.90;;;;;;4987539;28;20672;-85
2022/10/28 07:34:11;;;;;;;6.03;4.13;;;14.20;99.90;;;;;;4988592;28;20183;-83
2022/10/28 07:36:36;;;;;;;8.82;4.10;;;14.30;99.90;;;;;;4991586;28;20802;-83
2022/10/28 07:39:02;;;;;;;6.85;4.07;;;14.20;99.90;;;;;;4993686;28;20674;-83
2022/10/28 07:41:29;;;;;;;7.97;4.15;;;14.40;99.90;;;;;;4990935;28;20215;-84
2022/10/28 07:43:54;;;;;;;7.80;3.78;;;14.40;99.90;;;;;;4990183;28;20179;-79
2022/10/28 07:46:20;;;;;;;9.90;4.10;;;14.50;99.90;;;;;;5006227;28;20204;-80
2022/10/28 07:48:46;;;;;;;7.78;4.30;;;14.50;99.90;;;;;;5008833;28;20544;-79
2022/10/28 07:51:13;;;;;;;6.00;4.10;;;14.70;99.90;;;;;;5008778;28;20735;-81
2022/10/28 07:53:40;;;;;;;6.32;3.75;;;14.70;99.90;;;;;;4990571;28;20221;-78
2022/10/28 07:56:08;;;;;;;5.95;3.75;;;14.80;99.90;;;;;;5009482;28;20306;-77
2022/10/28 07:58:35;;;;;;;6.35;4.00;;;14.80;99.90;;;;;;5008444;28;20180;-79
2022/10/28 08:01:03;;;;;;;7.88;3.40;;;14.80;99.90;;;;;;5007951;28;20214;-82
2022/10/28 08:03:28;;;;;;;9.38;3.92;;;14.80;99.90;;;;;;5007715;28;20195;-83
2022/10/28 08:06:16;;;;;;;6.25;3.53;;;14.90;99.90;;;;;;4992371;28;20251;-82
2022/10/28 08:08:42;;;;;;;7.05;3.80;;;14.90;99.90;;;;;;4990418;28;20233;-82
2022/10/28 08:11:14;;;;;;;5.50;3.42;;;14.60;99.90;;;;;;4986616;28;20198;-82
2022/10/28 08:13:40;;;;;;;5.57;3.53;;;15.10;99.90;;;;;;4984815;28;20191;-83
2022/10/28 08:16:06;;;;;;;10.52;3.70;;;15.20;99.90;;;;;;5009171;28;20707;-83
2022/10/28 08:18:32;;;;;;;6.38;3.55;;;15.40;99.90;;;;;;4991466;28;20186;-84
2022/10/28 08:20:59;;;;;;;8.55;3.45;;;15.40;99.90;;;;;;4989405;28;20203;-84
2022/10/28 08:23:26;;;;;;;5.00;3.30;;;15.60;99.90;;;;;;4993771;28;20553;-83
2022/10/28 08:25:52;;;;;;;8.20;3.85;;;15.70;99.90;;;;;;4989891;28;20195;-83
2022/10/28 08:28:18;;;;;;;6.68;3.53;;;15.90;94.60;;;;;;4990953;28;20195;-83
2022/10/28 08:30:45;;;;;;;7.47;3.33;;;15.90;82.00;;;;;;5008189;28;20671;-83
2022/10/28 08:33:11;;;;;;;5.63;2.80;;;16.10;74.10;;;;;;4999496;28;20192;-83
2022/10/28 08:35:36;;;;;;;9.60;3.13;;;16.30;51.70;;;;;;4990413;28;20242;-83
2022/10/28 08:38:04;;;;;;;6.90;2.88;;;16.40;30.70;;;;;;4989281;28;20215;-83
2022/10/28 08:40:49;;;;;;;5.85;2.88;;;16.50;28.40;;;;;;5000187;28;20270;-84
2022/10/28 08:43:57;;;;;;;5.07;2.38;;;16.70;22.50;;;;;;4986992;28;20207;-84
2022/10/28 08:46:29;;;;;;;6.18;2.63;;;16.90;14.40;;;;;;4989091;28;20349;-85
2022/10/28 08:48:56;;;;;;;5.90;2.97;;;17.20;1.00;;;;;;4988360;28;20179;-84
2022/10/28 08:51:44;;;;;;;11.75;2.38;;;17.50;1.00;;;;;;5004635;28;20563;-83
2022/10/28 08:54:28;;;;;;;5.05;2.65;;;17.70;1.00;;;;;;4990509;28;20282;-84
2022/10/28 08:56:57;;;;;;;6.75;2.88;;;17.90;1.00;;;;;;4996326;28;20198;-80
2022/10/28 08:59:35;;;;;;;7.28;2.70;;;18.10;1.00;;;;;;4988783;28;20206;-79
2022/10/28 09:02:16;;;;;;;7.93;2.63;;;18.40;1.00;;;;;;5005652;28;20862;-79
2022/10/28 09:04:43;;;;;;;7.18;2.53;;;18.70;1.00;;;;;;4986913;28;20191;-81
2022/10/28 09:07:23;;;;;;;9.38;2.75;;;19.20;1.00;;;;;;4986294;28;20246;-80
2022/10/28 09:09:50;;;;;;;9.10;2.53;;;19.30;1.00;;;;;;5003707;28;20180;-80
2022/10/28 09:12:36;;;;;;;7.25;2.70;;;19.30;1.00;;;;;;5004343;28;20191;-80
2022/10/28 09:15:12;;;;;;;7.97;3.33;;;19.70;1.00;;;;;;5003145;28;20557;-79
2022/10/28 09:17:50;;;;;;;10.65;2.85;;;19.70;1.00;;;;;;5004880;28;20182;-83
2022/10/28 09:20:20;;;;;;;9.90;2.80;;;19.80;1.00;;;;;;4986981;28;20231;-80
2022/10/28 09:22:53;;;;;;;9.77;2.90;;;19.50;1.00;;;;;;5005360;28;20611;-82
2022/10/28 09:25:24;;;;;;;9.00;3.13;;;20.10;1.00;;;;;;4986579;28;20294;-82
2022/10/28 09:27:59;;;;;;;11.68;3.22;;;20.20;1.00;;;;;;4988416;28;20303;-79
2022/10/28 09:30:40;;;;;;;7.72;2.80;;;20.30;1.00;;;;;;5005726;28;20269;-82
2022/10/28 09:33:33;;;;;;;10.35;3.17;;;20.40;1.00;;;;;;4987333;28;20195;-80
2022/10/28 09:36:01;;;;;;;10.55;2.90;;;20.70;1.00;;;;;;5003952;28;20211;-81
2022/10/28 09:38:30;;;;;;;9.25;2.88;;;20.60;1.00;;;;;;5004122;28;20473;-79
2022/10/28 09:41:09;;;;;;;11.15;4.20;;;20.50;1.00;;;;;;4986931;28;20202;-83
2022/10/28 09:43:42;;;;;;;8.02;3.00;;;20.70;1.00;;;;;;4989229;28;20340;-78
2022/10/28 09:46:12;;;;;;;10.35;3.00;;;20.90;1.00;;;;;;5003478;28;20215;-81
2022/10/28 09:49:00;;;;;;;7.97;2.92;;;21.10;1.00;;;;;;5004096;28;20184;-80
2022/10/28 09:51:46;;;;;;;5.20;2.28;;;21.00;1.00;;;;;;5003289;28;20216;-82
2022/10/28 09:54:13;;;;;;;7.78;2.40;;;21.00;1.00;;;;;;5004321;28;20197;-80
2022/10/28 09:56:39;;;;;;;7.18;3.05;;;20.80;1.00;;;;;;5003808;28;20210;-80
2022/10/28 09:59:06;;;;;;;7.75;2.58;;;20.60;1.00;;;;;;4984967;28;20195;-79
2022/10/28 10:01:34;;;;;;;9.30;2.72;;;20.50;1.00;;;;;;5003617;28;20211;-80
2022/10/28 10:04:00;;;;;;;6.28;2.50;;;20.50;1.00;;;;;;5004355;28;20337;-78
2022/10/28 10:06:36;;;;;;;7.43;2.92;;;20.40;1.00;;;;;;5003498;28;20249;-79
2022/10/28 10:09:02;;;;;;;6.53;3.00;;;20.40;1.00;;;;;;4985863;28;20244;-81
2022/10/28 10:11:41;;;;;;;7.55;2.60;;;20.50;1.00;;;;;;4986100;28;20721;-82
2022/10/28 10:14:11;;;;;;;6.70;2.47;;;20.70;1.00;;;;;;4986544;28;20191;-80
2022/10/28 10:16:48;;;;;;;7.88;3.03;;;20.90;1.00;;;;;;4985886;28;20211;-79
2022/10/28 10:19:14;;;;;;;6.43;2.08;;;21.00;1.00;;;;;;4985882;28;20555;-80
2022/10/28 10:21:44;;;;;;;8.27;2.90;;;21.10;1.00;;;;;;4986495;28;20186;-80
2022/10/28 10:24:30;;;;;;;11.95;2.97;;;21.20;1.00;;;;;;5003832;28;20183;-79
2022/10/28 10:27:16;;;;;;;7.05;2.72;;;21.10;1.00;;;;;;4985059;28;20185;-79
2022/10/28 10:29:50;;;;;;;6.03;2.30;;;21.20;1.00;;;;;;4994553;28;20203;-84
2022/10/28 10:32:18;;;;;;;5.18;2.35;;;21.20;1.00;;;;;;4985593;28;20201;-84
2022/10/28 10:34:58;;;;;;;6.85;2.30;;;21.20;1.00;;;;;;4992736;28;20231;-84
2022/10/28 10:37:24;;;;;;;5.38;2.35;;;21.10;1.00;;;;;;4983733;28;20205;-83
2022/10/28 10:40:17;;;;;;;5.13;2.20;;;21.20;1.00;;;;;;5004026;28;20222;-83
2022/10/28 10:42:44;;;;;;;6.35;2.50;;;21.30;1.00;;;;;;4987432;28;20187;-83
2022/10/28 10:45:26;;;;;;;9.07;2.63;;;21.40;1.00;;;;;;4988019;28;20277;-84
2022/10/28 10:48:11;;;;;;;11.30;2.42;;;21.40;1.00;;;;;;4997007;28;20824;-84
2022/10/28 10:50:37;;;;;;;6.32;2.35;;;21.40;1.00;;;;;;4988380;28;21486;-83
2022/10/28 10:53:03;;;;;;;7.82;2.80;;;21.40;1.00;;;;;;4988214;28;20215;-83
2022/10/28 10:55:39;;;;;;;7.03;2.38;;;21.50;1.00;;;;;;4988010;28;20302;-84
2022/10/28 10:58:14;;;;;;;10.35;2.60;;;21.40;1.00;;;;;;4981566;28;20193;-86
2022/10/28 11:00:49;;;;;;;7.28;2.28;;;21.50;1.00;;;;;;4991583;28;20214;-85
2022/10/28 11:03:23;;;;;;;6.05;2.22;;;21.50;1.00;;;;;;4986139;28;20214;-85
2022/10/28 11:05:55;;;;;;;5.90;2.45;;;21.40;1.00;;;;;;4981120;28;20210;-85
2022/10/28 11:08:39;;;;;;;9.05;2.50;;;21.30;1.00;;;;;;4991417;28;20187;-85
2022/10/28 11:11:13;;;;;;;10.68;3.05;;;21.50;1.00;;;;;;4990776;28;20183;-84
2022/10/28 11:13:39;;;;;;;8.27;2.63;;;21.60;1.00;;;;;;4982042;28;20854;-83
2022/10/28 11:16:16;;;;;;;8.25;2.75;;;21.70;1.00;;;;;;5000710;28;20493;-85
2022/10/28 11:18:44;;;;;;;6.50;2.63;;;21.80;1.00;;;;;;4983907;28;20187;-85
2022/10/28 11:21:17;;;;;;;8.43;2.40;;;21.90;1.00;;;;;;4983907;28;20679;-85
2022/10/28 11:24:08;;;;;;;7.18;2.40;;;22.00;1.00;;;;;;4984357;28;20714;-85
2022/10/28 11:26:42;;;;;;;7.35;2.78;;;22.10;1.00;;;;;;4984402;28;20207;-85
2022/10/28 11:29:09;;;;;;;5.55;1.98;;;22.30;1.00;;;;;;4984848;28;20183;-85
2022/10/28 11:31:47;;;;;;;7.53;2.60;;;22.60;1.00;;;;;;4984760;28;20226;-85
2022/10/28 11:34:34;;;;;;;4.25;2.20;;;22.50;1.00;;;;;;4984193;28;20335;-85
2022/10/28 11:37:29;;;;;;;8.73;2.60;;;22.50;1.00;;;;;;5002841;28;20687;-86
2022/10/28 11:40:13;;;;;;;8.07;2.78;;;22.70;1.00;;;;;;4984207;28;20242;-86
2022/10/28 11:42:48;;;;;;;8.30;2.50;;;22.80;1.00;;;;;;4985028;28;20467;-84
2022/10/28 11:45:37;;;;;;;6.32;2.05;;;22.90;1.00;;;;;;4984949;28;20207;-85
2022/10/28 11:48:15;;;;;;;8.23;2.50;;;22.80;1.00;;;;;;4985241;28;20229;-86
2022/10/28 11:50:58;;;;;;;10.23;2.35;;;22.70;1.00;;;;;;4984543;28;20275;-85
2022/10/28 11:53:37;;;;;;;7.72;2.60;;;22.60;1.00;;;;;;4984771;28;20207;-86
2022/10/28 11:56:15;;;;;;;6.47;2.75;;;22.70;1.00;;;;;;4984651;28;20258;-86
2022/10/28 11:59:09;;;;;;;7.25;2.90;;;22.60;1.00;;;;;;4984808;28;20179;-87
2022/10/28 12:01:40;;;;;;;4.97;2.22;;;22.50;1.00;;;;;;4983768;28;20485;-86
2022/10/28 12:04:24;;;;;;;6.25;2.60;;;22.50;1.00;;;;;;5002353;28;20252;-85
2022/10/28 12:07:29;;;;;;;8.77;2.50;;;22.40;1.00;;;;;;4984823;28;20270;-85
2022/10/28 12:10:29;;;;;;;12.50;3.47;;;22.50;1.00;;;;;;4985017;28;20271;-85
2022/10/28 12:13:13;;;;;;;11.15;2.33;;;22.60;1.00;;;;;;4984591;28;20605;-86
2022/10/28 12:15:57;;;;;;;5.85;2.38;;;22.70;1.00;;;;;;4984280;28;20622;-85
2022/10/28 12:18:26;;;;;;;6.60;2.55;;;22.60;1.00;;;;;;4984522;28;20261;-85
2022/10/28 12:21:01;;;;;;;11.73;4.65;;;22.70;1.00;;;;;;4985129;28;20257;-86
2022/10/28 12:23:28;;;;;;;8.82;3.10;;;22.60;1.00;;;;;;5005786;28;20193;-85
2022/10/28 12:25:56;;;;;;;6.50;2.90;;;22.40;1.00;;;;;;5006073;28;20218;-85
2022/10/28 12:28:40;;;;;;;10.68;4.00;;;22.50;1.00;;;;;;4988239;28;20180;-85
2022/10/28 12:31:12;;;;;;;7.75;2.67;;;22.60;1.00;;;;;;4987556;28;20183;-85
2022/10/28 12:33:48;;;;;;;7.97;2.60;;;22.40;1.00;;;;;;4987753;28;20191;-85
2022/10/28 12:36:48;;;;;;;6.70;2.42;;;22.40;1.00;;;;;;4987228;28;20207;-85
2022/10/28 12:39:37;;;;;;;10.25;2.92;;;22.50;1.00;;;;;;4987658;28;20621;-85
2022/10/28 12:42:28;;;;;;;8.25;2.90;;;22.40;1.00;;;;;;4985347;28;20549;-86
2022/10/28 12:44:57;;;;;;;11.43;3.35;;;22.60;1.00;;;;;;5003468;28;20211;-85
2022/10/28 12:47:26;;;;;;;7.20;2.40;;;22.60;1.00;;;;;;4987983;28;20615;-87
2022/10/28 12:50:18;;;;;;;7.47;2.85;;;22.70;1.00;;;;;;4990430;28;20330;-86
2022/10/28 12:53:03;;;;;;;7.57;2.80;;;22.80;1.00;;;;;;5004124;28;20686;-86
2022/10/28 12:55:54;;;;;;;6.68;2.55;;;23.00;1.00;;;;;;4968486;28;20318;-86
2022/10/28 12:58:23;;;;;;;6.95;2.90;;;23.10;1.00;;;;;;4986098;28;20187;-86
2022/10/28 13:00:54;;;;;;;6.80;2.80;;;23.10;1.00;;;;;;4982943;28;20203;-85
2022/10/28 13:03:19;;;;;;;7.43;2.47;;;22.90;1.00;;;;;;4996262;28;20325;-85
2022/10/28 13:06:01;;;;;;;8.32;2.83;;;22.80;1.00;;;;;;4985687;28;20290;-86
2022/10/28 13:08:29;;;;;;;6.15;2.55;;;22.80;1.00;;;;;;4986475;28;20226;-85
2022/10/28 13:11:18;;;;;;;9.70;2.90;;;22.80;1.00;;;;;;4986279;28;20184;-86
2022/10/28 13:14:14;;;;;;;6.25;2.63;;;22.80;1.00;;;;;;4975854;28;20672;-86